sensor_id;sensor_type;location;lat;lon;timestamp;P1;durP1;ratioP1;P2;durP2;ratioP2
16824;SDS011;8529;48.108;-1.706;2023-04-06T00:01:43;27.88;;;14.85;;
16824;SDS011;8529;48.108;-1.706;2023-04-06T00:04:14;28.75;;;16.15;;
16824;SDS011;8529;48.108;-1.706;2023-04-06T00:06:41;27.02;;;16.60;;
16824;SDS011;8529;48.108;-1.706;2023-04-06T00:09:11;26.08;;;15.43;;
16824;SDS011;8529;48.108;-1.706;2023-04-06T00:11:42;27.25;;;16.05;;
16824;SDS011;8529;48.108;-1.706;2023-04-06T00:14:11;27.23;;;16.05;;
16824;SDS011;8529;48.108;-1.706;2023-04-06T00:16:43;25.88;;;15.50;;
16824;SDS011;8529;48.108;-1.706;2023-04-06T00:19:17;28.77;;;15.65;;
16824;SDS011;8529;48.108;-1.706;2023-04-06T00:21:44;27.80;;;15.70;;
16824;SDS011;8529;48.108;-1.706;2023-04-06T00:24:14;27.17;;;15.68;;
16824;SDS011;8529;48.108;-1.706;2023-04-06T00:26:49;27.75;;;15.55;;
16824;SDS011;8529;48.108;-1.706;2023-04-06T00:29:17;29.33;;;16.33;;
16824;SDS011;8529;48.108;-1.706;2023-04-06T00:31:46;32.17;;;17.55;;
16824;SDS011;8529;48.108;-1.706;2023-04-06T00:34:22;27.45;;;15.80;;
16824;SDS011;8529;48.108;-1.706;2023-04-06T00:36:49;29.85;;;17.00;;
16824;SDS011;8529;48.108;-1.706;2023-04-06T00:39:21;29.65;;;16.02;;
16824;SDS011;8529;48.108;-1.706;2023-04-06T00:41:51;29.63;;;16.80;;
16824;SDS011;8529;48.108;-1.706;2023-04-06T00:44:20;27.67;;;16.40;;
16824;SDS011;8529;48.108;-1.706;2023-04-06T00:46:50;31.33;;;17.23;;
16824;SDS011;8529;48.108;-1.706;2023-04-06T00:49:19;27.13;;;16.10;;
16824;SDS011;8529;48.108;-1.706;2023-04-06T00:51:46;28.80;;;16.38;;
16824;SDS011;8529;48.108;-1.706;2023-04-06T00:54:17;27.83;;;16.23;;
16824;SDS011;8529;48.108;-1.706;2023-04-06T00:56:49;30.17;;;16.23;;
16824;SDS011;8529;48.108;-1.706;2023-04-06T00:59:22;30.38;;;17.15;;
16824;SDS011;8529;48.108;-1.706;2023-04-06T01:01:52;26.85;;;15.77;;
16824;SDS011;8529;48.108;-1.706;2023-04-06T01:04:23;27.88;;;16.15;;
16824;SDS011;8529;48.108;-1.706;2023-04-06T01:06:55;27.33;;;16.42;;
16824;SDS011;8529;48.108;-1.706;2023-04-06T01:09:23;29.35;;;15.77;;
16824;SDS011;8529;48.108;-1.706;2023-04-06T01:11:53;28.10;;;15.40;;
16824;SDS011;8529;48.108;-1.706;2023-04-06T01:14:20;27.45;;;15.70;;
16824;SDS011;8529;48.108;-1.706;2023-04-06T01:16:50;31.15;;;16.42;;
16824;SDS011;8529;48.108;-1.706;2023-04-06T01:19:21;29.40;;;16.45;;
16824;SDS011;8529;48.108;-1.706;2023-04-06T01:22:00;25.83;;;16.17;;
16824;SDS011;8529;48.108;-1.706;2023-04-06T01:24:29;29.85;;;16.88;;
16824;SDS011;8529;48.108;-1.706;2023-04-06T01:26:56;29.15;;;16.42;;
16824;SDS011;8529;48.108;-1.706;2023-04-06T01:29:26;31.88;;;16.95;;
16824;SDS011;8529;48.108;-1.706;2023-04-06T01:31:59;27.02;;;16.15;;
16824;SDS011;8529;48.108;-1.706;2023-04-06T01:34:27;31.80;;;16.27;;
16824;SDS011;8529;48.108;-1.706;2023-04-06T01:36:54;28.05;;;14.90;;
16824;SDS011;8529;48.108;-1.706;2023-04-06T01:39:23;28.08;;;15.77;;
16824;SDS011;8529;48.108;-1.706;2023-04-06T01:41:56;30.00;;;16.33;;
16824;SDS011;8529;48.108;-1.706;2023-04-06T01:44:25;26.63;;;17.35;;
16824;SDS011;8529;48.108;-1.706;2023-04-06T01:46:57;27.88;;;16.20;;
16824;SDS011;8529;48.108;-1.706;2023-04-06T01:49:25;29.02;;;16.67;;
16824;SDS011;8529;48.108;-1.706;2023-04-06T01:51:57;29.25;;;16.70;;
16824;SDS011;8529;48.108;-1.706;2023-04-06T01:54:24;27.60;;;15.65;;
16824;SDS011;8529;48.108;-1.706;2023-04-06T01:56:52;28.35;;;16.50;;
16824;SDS011;8529;48.108;-1.706;2023-04-06T01:59:23;32.78;;;17.10;;
16824;SDS011;8529;48.108;-1.706;2023-04-06T02:01:56;28.88;;;16.63;;
16824;SDS011;8529;48.108;-1.706;2023-04-06T02:04:25;29.88;;;17.55;;
16824;SDS011;8529;48.108;-1.706;2023-04-06T02:06:54;27.55;;;16.48;;
16824;SDS011;8529;48.108;-1.706;2023-04-06T02:09:21;29.27;;;17.23;;
16824;SDS011;8529;48.108;-1.706;2023-04-06T02:11:51;32.13;;;17.33;;
16824;SDS011;8529;48.108;-1.706;2023-04-06T02:14:25;27.63;;;15.93;;
16824;SDS011;8529;48.108;-1.706;2023-04-06T02:16:56;26.63;;;15.30;;
16824;SDS011;8529;48.108;-1.706;2023-04-06T02:19:25;24.38;;;15.68;;
16824;SDS011;8529;48.108;-1.706;2023-04-06T02:21:52;27.60;;;15.98;;
16824;SDS011;8529;48.108;-1.706;2023-04-06T02:24:25;24.20;;;14.75;;
16824;SDS011;8529;48.108;-1.706;2023-04-06T02:27:02;26.45;;;15.70;;
16824;SDS011;8529;48.108;-1.706;2023-04-06T02:29:32;28.27;;;15.07;;
16824;SDS011;8529;48.108;-1.706;2023-04-06T02:32:05;24.10;;;14.38;;
16824;SDS011;8529;48.108;-1.706;2023-04-06T02:34:35;27.83;;;15.98;;
16824;SDS011;8529;48.108;-1.706;2023-04-06T02:37:07;26.55;;;14.27;;
16824;SDS011;8529;48.108;-1.706;2023-04-06T02:39:36;24.80;;;14.48;;
16824;SDS011;8529;48.108;-1.706;2023-04-06T02:42:10;25.27;;;14.20;;
16824;SDS011;8529;48.108;-1.706;2023-04-06T02:44:40;23.30;;;13.95;;
16824;SDS011;8529;48.108;-1.706;2023-04-06T02:47:09;22.00;;;13.48;;
16824;SDS011;8529;48.108;-1.706;2023-04-06T02:49:40;25.00;;;14.52;;
16824;SDS011;8529;48.108;-1.706;2023-04-06T02:52:09;23.00;;;13.25;;
16824;SDS011;8529;48.108;-1.706;2023-04-06T02:54:42;23.20;;;13.85;;
16824;SDS011;8529;48.108;-1.706;2023-04-06T02:57:14;20.42;;;13.10;;
16824;SDS011;8529;48.108;-1.706;2023-04-06T02:59:45;22.15;;;13.00;;
16824;SDS011;8529;48.108;-1.706;2023-04-06T03:02:13;24.75;;;13.52;;
16824;SDS011;8529;48.108;-1.706;2023-04-06T03:04:46;20.50;;;12.85;;
16824;SDS011;8529;48.108;-1.706;2023-04-06T03:07:14;21.17;;;12.20;;
16824;SDS011;8529;48.108;-1.706;2023-04-06T03:09:41;20.30;;;12.70;;
16824;SDS011;8529;48.108;-1.706;2023-04-06T03:12:14;22.13;;;12.27;;
16824;SDS011;8529;48.108;-1.706;2023-04-06T03:14:43;20.52;;;12.40;;
16824;SDS011;8529;48.108;-1.706;2023-04-06T03:17:18;18.42;;;11.65;;
16824;SDS011;8529;48.108;-1.706;2023-04-06T03:19:45;21.77;;;12.65;;
16824;SDS011;8529;48.108;-1.706;2023-04-06T03:22:19;20.95;;;12.82;;
16824;SDS011;8529;48.108;-1.706;2023-04-06T03:25:01;22.55;;;12.82;;
16824;SDS011;8529;48.108;-1.706;2023-04-06T03:27:30;19.35;;;11.85;;
16824;SDS011;8529;48.108;-1.706;2023-04-06T03:29:59;18.92;;;11.48;;
16824;SDS011;8529;48.108;-1.706;2023-04-06T03:32:33;21.98;;;12.02;;
16824;SDS011;8529;48.108;-1.706;2023-04-06T03:35:06;18.17;;;12.13;;
16824;SDS011;8529;48.108;-1.706;2023-04-06T03:37:36;19.38;;;12.02;;
16824;SDS011;8529;48.108;-1.706;2023-04-06T03:40:06;18.15;;;11.18;;
16824;SDS011;8529;48.108;-1.706;2023-04-06T03:42:39;17.70;;;11.05;;
16824;SDS011;8529;48.108;-1.706;2023-04-06T03:45:12;18.30;;;11.38;;
16824;SDS011;8529;48.108;-1.706;2023-04-06T03:47:46;17.60;;;10.65;;
16824;SDS011;8529;48.108;-1.706;2023-04-06T03:50:13;18.02;;;11.38;;
16824;SDS011;8529;48.108;-1.706;2023-04-06T03:52:40;17.33;;;10.73;;
16824;SDS011;8529;48.108;-1.706;2023-04-06T03:55:07;18.15;;;10.52;;
16824;SDS011;8529;48.108;-1.706;2023-04-06T03:57:39;17.85;;;10.50;;
16824;SDS011;8529;48.108;-1.706;2023-04-06T04:00:07;18.30;;;10.80;;
16824;SDS011;8529;48.108;-1.706;2023-04-06T04:02:37;19.48;;;10.50;;
16824;SDS011;8529;48.108;-1.706;2023-04-06T04:05:09;16.48;;;10.50;;
16824;SDS011;8529;48.108;-1.706;2023-04-06T04:07:39;18.75;;;10.13;;
16824;SDS011;8529;48.108;-1.706;2023-04-06T04:10:11;15.20;;;9.60;;
16824;SDS011;8529;48.108;-1.706;2023-04-06T04:12:42;13.65;;;9.40;;
16824;SDS011;8529;48.108;-1.706;2023-04-06T04:15:14;15.93;;;9.65;;
16824;SDS011;8529;48.108;-1.706;2023-04-06T04:17:50;14.02;;;9.25;;
16824;SDS011;8529;48.108;-1.706;2023-04-06T04:20:25;15.30;;;9.10;;
16824;SDS011;8529;48.108;-1.706;2023-04-06T04:22:55;12.13;;;8.55;;
16824;SDS011;8529;48.108;-1.706;2023-04-06T04:25:24;13.55;;;8.32;;
16824;SDS011;8529;48.108;-1.706;2023-04-06T04:27:57;12.98;;;8.70;;
16824;SDS011;8529;48.108;-1.706;2023-04-06T04:30:24;13.38;;;8.10;;
16824;SDS011;8529;48.108;-1.706;2023-04-06T04:32:56;12.07;;;7.53;;
16824;SDS011;8529;48.108;-1.706;2023-04-06T04:35:23;11.30;;;7.80;;
16824;SDS011;8529;48.108;-1.706;2023-04-06T04:37:50;13.23;;;8.05;;
16824;SDS011;8529;48.108;-1.706;2023-04-06T04:40:19;13.45;;;7.18;;
16824;SDS011;8529;48.108;-1.706;2023-04-06T04:42:46;10.82;;;7.72;;
16824;SDS011;8529;48.108;-1.706;2023-04-06T04:45:20;11.00;;;6.88;;
16824;SDS011;8529;48.108;-1.706;2023-04-06T04:47:54;10.57;;;7.13;;
16824;SDS011;8529;48.108;-1.706;2023-04-06T04:50:21;11.30;;;6.97;;
16824;SDS011;8529;48.108;-1.706;2023-04-06T04:52:54;9.95;;;7.03;;
16824;SDS011;8529;48.108;-1.706;2023-04-06T04:55:22;10.38;;;7.07;;
16824;SDS011;8529;48.108;-1.706;2023-04-06T04:57:52;11.15;;;7.32;;
16824;SDS011;8529;48.108;-1.706;2023-04-06T05:00:23;9.05;;;7.22;;
16824;SDS011;8529;48.108;-1.706;2023-04-06T05:02:54;12.40;;;7.45;;
16824;SDS011;8529;48.108;-1.706;2023-04-06T05:05:21;10.68;;;6.80;;
16824;SDS011;8529;48.108;-1.706;2023-04-06T05:07:48;12.40;;;7.85;;
16824;SDS011;8529;48.108;-1.706;2023-04-06T05:10:15;12.18;;;7.25;;
16824;SDS011;8529;48.108;-1.706;2023-04-06T05:12:46;11.55;;;7.72;;
16824;SDS011;8529;48.108;-1.706;2023-04-06T05:15:13;10.38;;;6.80;;
16824;SDS011;8529;48.108;-1.706;2023-04-06T05:17:41;10.80;;;7.47;;
16824;SDS011;8529;48.108;-1.706;2023-04-06T05:20:25;12.02;;;7.93;;
16824;SDS011;8529;48.108;-1.706;2023-04-06T05:22:55;12.68;;;8.00;;
16824;SDS011;8529;48.108;-1.706;2023-04-06T05:25:23;11.15;;;7.28;;
16824;SDS011;8529;48.108;-1.706;2023-04-06T05:27:57;11.52;;;7.45;;
16824;SDS011;8529;48.108;-1.706;2023-04-06T05:30:25;12.98;;;7.93;;
16824;SDS011;8529;48.108;-1.706;2023-04-06T05:32:55;13.65;;;8.30;;
16824;SDS011;8529;48.108;-1.706;2023-04-06T05:35:23;11.18;;;7.40;;
16824;SDS011;8529;48.108;-1.706;2023-04-06T05:37:52;13.00;;;8.23;;
16824;SDS011;8529;48.108;-1.706;2023-04-06T05:40:19;11.85;;;7.25;;
16824;SDS011;8529;48.108;-1.706;2023-04-06T05:42:47;12.60;;;7.75;;
16824;SDS011;8529;48.108;-1.706;2023-04-06T05:45:19;10.13;;;7.78;;
16824;SDS011;8529;48.108;-1.706;2023-04-06T05:47:48;12.07;;;7.57;;
16824;SDS011;8529;48.108;-1.706;2023-04-06T05:50:19;12.05;;;7.10;;
16824;SDS011;8529;48.108;-1.706;2023-04-06T05:52:49;12.88;;;7.25;;
16824;SDS011;8529;48.108;-1.706;2023-04-06T05:55:16;9.65;;;6.78;;
16824;SDS011;8529;48.108;-1.706;2023-04-06T05:57:49;12.85;;;7.53;;
16824;SDS011;8529;48.108;-1.706;2023-04-06T06:00:16;11.35;;;7.15;;
16824;SDS011;8529;48.108;-1.706;2023-04-06T06:02:43;10.15;;;6.88;;
16824;SDS011;8529;48.108;-1.706;2023-04-06T06:05:11;11.63;;;6.78;;
16824;SDS011;8529;48.108;-1.706;2023-04-06T06:07:44;10.95;;;6.72;;
16824;SDS011;8529;48.108;-1.706;2023-04-06T06:10:16;8.57;;;6.10;;
16824;SDS011;8529;48.108;-1.706;2023-04-06T06:12:43;11.88;;;7.75;;
16824;SDS011;8529;48.108;-1.706;2023-04-06T06:15:12;9.82;;;6.90;;
16824;SDS011;8529;48.108;-1.706;2023-04-06T06:17:41;11.85;;;7.65;;
16824;SDS011;8529;48.108;-1.706;2023-04-06T06:20:21;11.40;;;8.00;;
16824;SDS011;8529;48.108;-1.706;2023-04-06T06:22:52;13.05;;;7.20;;
16824;SDS011;8529;48.108;-1.706;2023-04-06T06:25:25;11.25;;;7.32;;
16824;SDS011;8529;48.108;-1.706;2023-04-06T06:27:52;11.98;;;6.80;;
16824;SDS011;8529;48.108;-1.706;2023-04-06T06:30:21;11.52;;;6.97;;
16824;SDS011;8529;48.108;-1.706;2023-04-06T06:32:52;11.13;;;7.40;;
16824;SDS011;8529;48.108;-1.706;2023-04-06T06:35:24;9.75;;;6.70;;
16824;SDS011;8529;48.108;-1.706;2023-04-06T06:37:55;11.43;;;6.85;;
16824;SDS011;8529;48.108;-1.706;2023-04-06T06:40:25;11.50;;;7.43;;
16824;SDS011;8529;48.108;-1.706;2023-04-06T06:42:55;12.95;;;8.10;;
16824;SDS011;8529;48.108;-1.706;2023-04-06T06:45:25;9.70;;;6.50;;
16824;SDS011;8529;48.108;-1.706;2023-04-06T06:47:55;12.07;;;6.75;;
16824;SDS011;8529;48.108;-1.706;2023-04-06T06:50:22;12.02;;;7.90;;
16824;SDS011;8529;48.108;-1.706;2023-04-06T06:52:51;11.00;;;7.65;;
16824;SDS011;8529;48.108;-1.706;2023-04-06T06:55:21;11.20;;;7.05;;
16824;SDS011;8529;48.108;-1.706;2023-04-06T06:57:57;13.98;;;7.50;;
16824;SDS011;8529;48.108;-1.706;2023-04-06T07:00:29;15.77;;;8.27;;
16824;SDS011;8529;48.108;-1.706;2023-04-06T07:02:55;13.23;;;8.85;;
16824;SDS011;8529;48.108;-1.706;2023-04-06T07:05:30;10.88;;;6.88;;
16824;SDS011;8529;48.108;-1.706;2023-04-06T07:07:57;11.70;;;7.65;;
16824;SDS011;8529;48.108;-1.706;2023-04-06T07:10:32;13.05;;;9.20;;
16824;SDS011;8529;48.108;-1.706;2023-04-06T07:13:03;12.48;;;8.93;;
16824;SDS011;8529;48.108;-1.706;2023-04-06T07:15:32;12.98;;;7.40;;
16824;SDS011;8529;48.108;-1.706;2023-04-06T07:18:04;13.00;;;7.22;;
16824;SDS011;8529;48.108;-1.706;2023-04-06T07:20:33;9.27;;;6.93;;
16824;SDS011;8529;48.108;-1.706;2023-04-06T07:23:15;10.68;;;6.70;;
16824;SDS011;8529;48.108;-1.706;2023-04-06T07:25:47;10.98;;;6.43;;
16824;SDS011;8529;48.108;-1.706;2023-04-06T07:28:18;10.20;;;6.82;;
16824;SDS011;8529;48.108;-1.706;2023-04-06T07:30:50;13.82;;;6.72;;
16824;SDS011;8529;48.108;-1.706;2023-04-06T07:33:19;13.82;;;7.53;;
16824;SDS011;8529;48.108;-1.706;2023-04-06T07:35:46;9.70;;;6.72;;
16824;SDS011;8529;48.108;-1.706;2023-04-06T07:38:14;9.57;;;6.85;;
16824;SDS011;8529;48.108;-1.706;2023-04-06T07:40:46;8.25;;;6.35;;
16824;SDS011;8529;48.108;-1.706;2023-04-06T07:43:23;11.45;;;6.82;;
16824;SDS011;8529;48.108;-1.706;2023-04-06T07:45:57;10.13;;;6.45;;
16824;SDS011;8529;48.108;-1.706;2023-04-06T07:48:28;14.00;;;6.85;;
16824;SDS011;8529;48.108;-1.706;2023-04-06T07:51:04;12.75;;;7.47;;
16824;SDS011;8529;48.108;-1.706;2023-04-06T07:53:32;10.32;;;7.20;;
16824;SDS011;8529;48.108;-1.706;2023-04-06T07:56:03;11.48;;;6.88;;
16824;SDS011;8529;48.108;-1.706;2023-04-06T07:58:32;9.30;;;6.35;;
16824;SDS011;8529;48.108;-1.706;2023-04-06T08:01:01;10.77;;;7.22;;
16824;SDS011;8529;48.108;-1.706;2023-04-06T08:03:33;9.52;;;6.63;;
16824;SDS011;8529;48.108;-1.706;2023-04-06T08:06:03;10.82;;;7.15;;
16824;SDS011;8529;48.108;-1.706;2023-04-06T08:08:40;12.52;;;7.32;;
16824;SDS011;8529;48.108;-1.706;2023-04-06T08:11:09;13.90;;;7.68;;
16824;SDS011;8529;48.108;-1.706;2023-04-06T08:13:38;9.27;;;6.95;;
16824;SDS011;8529;48.108;-1.706;2023-04-06T08:16:05;10.80;;;7.05;;
16824;SDS011;8529;48.108;-1.706;2023-04-06T08:18:37;10.32;;;6.28;;
16824;SDS011;8529;48.108;-1.706;2023-04-06T08:21:06;9.10;;;6.97;;
16824;SDS011;8529;48.108;-1.706;2023-04-06T08:23:37;12.20;;;6.80;;
16824;SDS011;8529;48.108;-1.706;2023-04-06T08:26:12;12.95;;;6.88;;
16824;SDS011;8529;48.108;-1.706;2023-04-06T08:28:45;9.18;;;6.88;;
16824;SDS011;8529;48.108;-1.706;2023-04-06T08:31:14;10.82;;;6.40;;
16824;SDS011;8529;48.108;-1.706;2023-04-06T08:33:44;8.30;;;5.82;;
16824;SDS011;8529;48.108;-1.706;2023-04-06T08:36:15;8.85;;;6.15;;
16824;SDS011;8529;48.108;-1.706;2023-04-06T08:38:47;8.93;;;6.38;;
16824;SDS011;8529;48.108;-1.706;2023-04-06T08:41:20;9.85;;;6.20;;
16824;SDS011;8529;48.108;-1.706;2023-04-06T08:43:54;9.07;;;5.85;;
16824;SDS011;8529;48.108;-1.706;2023-04-06T08:46:24;8.38;;;6.30;;
16824;SDS011;8529;48.108;-1.706;2023-04-06T08:48:59;8.18;;;5.55;;
16824;SDS011;8529;48.108;-1.706;2023-04-06T08:51:31;8.68;;;5.78;;
16824;SDS011;8529;48.108;-1.706;2023-04-06T08:54:01;8.18;;;5.97;;
16824;SDS011;8529;48.108;-1.706;2023-04-06T08:56:32;9.65;;;6.05;;
16824;SDS011;8529;48.108;-1.706;2023-04-06T08:59:03;7.22;;;5.65;;
16824;SDS011;8529;48.108;-1.706;2023-04-06T09:01:33;8.55;;;5.72;;
16824;SDS011;8529;48.108;-1.706;2023-04-06T09:04:10;8.38;;;5.25;;
16824;SDS011;8529;48.108;-1.706;2023-04-06T09:06:39;9.10;;;5.47;;
16824;SDS011;8529;48.108;-1.706;2023-04-06T09:09:09;7.32;;;5.55;;
16824;SDS011;8529;48.108;-1.706;2023-04-06T09:11:57;7.72;;;5.05;;
16824;SDS011;8529;48.108;-1.706;2023-04-06T09:14:34;5.82;;;4.30;;
16824;SDS011;8529;48.108;-1.706;2023-04-06T09:17:02;7.75;;;5.00;;
16824;SDS011;8529;48.108;-1.706;2023-04-06T09:19:33;8.88;;;4.63;;
16824;SDS011;8529;48.108;-1.706;2023-04-06T09:22:14;5.88;;;4.60;;
16824;SDS011;8529;48.108;-1.706;2023-04-06T09:24:45;6.65;;;4.13;;
16824;SDS011;8529;48.108;-1.706;2023-04-06T09:27:15;10.18;;;5.63;;
16824;SDS011;8529;48.108;-1.706;2023-04-06T09:29:42;12.05;;;4.93;;
16824;SDS011;8529;48.108;-1.706;2023-04-06T09:32:10;8.35;;;4.68;;
16824;SDS011;8529;48.108;-1.706;2023-04-06T09:34:41;5.70;;;3.97;;
16824;SDS011;8529;48.108;-1.706;2023-04-06T09:37:13;5.75;;;3.75;;
16824;SDS011;8529;48.108;-1.706;2023-04-06T09:39:41;7.00;;;3.97;;
16824;SDS011;8529;48.108;-1.706;2023-04-06T09:42:08;5.38;;;3.78;;
16824;SDS011;8529;48.108;-1.706;2023-04-06T09:44:37;4.72;;;4.25;;
16824;SDS011;8529;48.108;-1.706;2023-04-06T09:47:11;7.80;;;4.82;;
16824;SDS011;8529;48.108;-1.706;2023-04-06T09:49:50;6.50;;;3.70;;
16824;SDS011;8529;48.108;-1.706;2023-04-06T09:52:21;7.45;;;4.80;;
16824;SDS011;8529;48.108;-1.706;2023-04-06T09:54:55;8.65;;;4.63;;
16824;SDS011;8529;48.108;-1.706;2023-04-06T09:57:25;7.82;;;5.38;;
16824;SDS011;8529;48.108;-1.706;2023-04-06T10:00:03;7.53;;;5.05;;
16824;SDS011;8529;48.108;-1.706;2023-04-06T10:02:41;6.78;;;5.00;;
16824;SDS011;8529;48.108;-1.706;2023-04-06T10:05:22;6.90;;;5.00;;
16824;SDS011;8529;48.108;-1.706;2023-04-06T10:08:01;9.52;;;5.65;;
16824;SDS011;8529;48.108;-1.706;2023-04-06T10:10:38;8.38;;;5.25;;
16824;SDS011;8529;48.108;-1.706;2023-04-06T10:13:06;8.90;;;5.03;;
16824;SDS011;8529;48.108;-1.706;2023-04-06T10:15:42;8.27;;;5.45;;
16824;SDS011;8529;48.108;-1.706;2023-04-06T10:18:19;8.50;;;5.65;;
16824;SDS011;8529;48.108;-1.706;2023-04-06T10:20:50;9.93;;;5.95;;
16824;SDS011;8529;48.108;-1.706;2023-04-06T10:23:22;8.23;;;5.18;;
16824;SDS011;8529;48.108;-1.706;2023-04-06T10:26:02;7.88;;;5.25;;
16824;SDS011;8529;48.108;-1.706;2023-04-06T10:28:30;6.03;;;4.65;;
16824;SDS011;8529;48.108;-1.706;2023-04-06T10:31:04;5.35;;;4.20;;
16824;SDS011;8529;48.108;-1.706;2023-04-06T10:33:34;6.50;;;4.50;;
16824;SDS011;8529;48.108;-1.706;2023-04-06T10:36:09;6.50;;;4.28;;
16824;SDS011;8529;48.108;-1.706;2023-04-06T10:38:41;5.63;;;3.67;;
16824;SDS011;8529;48.108;-1.706;2023-04-06T10:41:09;6.40;;;4.10;;
16824;SDS011;8529;48.108;-1.706;2023-04-06T10:43:57;8.20;;;4.00;;
16824;SDS011;8529;48.108;-1.706;2023-04-06T10:46:54;5.65;;;3.92;;
16824;SDS011;8529;48.108;-1.706;2023-04-06T10:49:26;5.32;;;3.65;;
16824;SDS011;8529;48.108;-1.706;2023-04-06T10:52:04;5.43;;;3.70;;
16824;SDS011;8529;48.108;-1.706;2023-04-06T10:54:38;5.50;;;3.65;;
16824;SDS011;8529;48.108;-1.706;2023-04-06T10:57:10;3.72;;;3.30;;
16824;SDS011;8529;48.108;-1.706;2023-04-06T10:59:42;5.10;;;3.58;;
16824;SDS011;8529;48.108;-1.706;2023-04-06T11:02:19;5.40;;;4.43;;
16824;SDS011;8529;48.108;-1.706;2023-04-06T11:04:57;5.35;;;3.97;;
16824;SDS011;8529;48.108;-1.706;2023-04-06T11:07:30;4.82;;;4.13;;
16824;SDS011;8529;48.108;-1.706;2023-04-06T11:09:57;5.32;;;3.83;;
16824;SDS011;8529;48.108;-1.706;2023-04-06T11:12:34;6.53;;;3.97;;
16824;SDS011;8529;48.108;-1.706;2023-04-06T11:15:07;5.57;;;4.30;;
16824;SDS011;8529;48.108;-1.706;2023-04-06T11:17:37;5.18;;;3.38;;
16824;SDS011;8529;48.108;-1.706;2023-04-06T11:20:17;7.00;;;3.90;;
16824;SDS011;8529;48.108;-1.706;2023-04-06T11:22:51;3.60;;;3.00;;
16824;SDS011;8529;48.108;-1.706;2023-04-06T11:25:18;4.45;;;3.13;;
16824;SDS011;8529;48.108;-1.706;2023-04-06T11:27:45;4.65;;;3.42;;
16824;SDS011;8529;48.108;-1.706;2023-04-06T11:30:14;4.72;;;3.20;;
16824;SDS011;8529;48.108;-1.706;2023-04-06T11:32:43;5.35;;;3.33;;
16824;SDS011;8529;48.108;-1.706;2023-04-06T11:35:20;4.32;;;2.80;;
16824;SDS011;8529;48.108;-1.706;2023-04-06T11:37:48;4.00;;;2.65;;
16824;SDS011;8529;48.108;-1.706;2023-04-06T11:40:20;3.10;;;1.50;;
16824;SDS011;8529;48.108;-1.706;2023-04-06T11:42:54;3.13;;;2.00;;
16824;SDS011;8529;48.108;-1.706;2023-04-06T11:45:40;20.30;;;8.23;;
16824;SDS011;8529;48.108;-1.706;2023-04-06T11:48:20;6.10;;;3.00;;
16824;SDS011;8529;48.108;-1.706;2023-04-06T11:50:59;2.38;;;1.65;;
16824;SDS011;8529;48.108;-1.706;2023-04-06T11:53:27;5.30;;;2.03;;
16824;SDS011;8529;48.108;-1.706;2023-04-06T11:56:00;1.60;;;1.48;;
16824;SDS011;8529;48.108;-1.706;2023-04-06T11:58:36;2.88;;;1.40;;
16824;SDS011;8529;48.108;-1.706;2023-04-06T12:01:06;2.60;;;1.48;;
16824;SDS011;8529;48.108;-1.706;2023-04-06T12:03:38;3.67;;;1.40;;
16824;SDS011;8529;48.108;-1.706;2023-04-06T12:06:07;3.13;;;1.45;;
16824;SDS011;8529;48.108;-1.706;2023-04-06T12:08:36;2.33;;;1.60;;
16824;SDS011;8529;48.108;-1.706;2023-04-06T12:11:06;3.67;;;1.70;;
16824;SDS011;8529;48.108;-1.706;2023-04-06T12:13:46;3.67;;;1.67;;
16824;SDS011;8529;48.108;-1.706;2023-04-06T12:16:15;5.03;;;1.80;;
16824;SDS011;8529;48.108;-1.706;2023-04-06T12:18:48;5.05;;;2.10;;
16824;SDS011;8529;48.108;-1.706;2023-04-06T12:21:19;2.67;;;1.88;;
16824;SDS011;8529;48.108;-1.706;2023-04-06T12:23:50;4.45;;;2.20;;
16824;SDS011;8529;48.108;-1.706;2023-04-06T12:26:21;3.80;;;1.85;;
16824;SDS011;8529;48.108;-1.706;2023-04-06T12:28:48;6.38;;;2.50;;
16824;SDS011;8529;48.108;-1.706;2023-04-06T12:31:15;2.70;;;2.20;;
16824;SDS011;8529;48.108;-1.706;2023-04-06T12:33:47;5.28;;;3.20;;
16824;SDS011;8529;48.108;-1.706;2023-04-06T12:36:18;4.03;;;2.67;;
16824;SDS011;8529;48.108;-1.706;2023-04-06T12:38:51;4.70;;;2.72;;
16824;SDS011;8529;48.108;-1.706;2023-04-06T12:41:23;2.70;;;1.70;;
16824;SDS011;8529;48.108;-1.706;2023-04-06T12:43:51;3.83;;;2.45;;
16824;SDS011;8529;48.108;-1.706;2023-04-06T12:46:18;3.33;;;2.40;;
16824;SDS011;8529;48.108;-1.706;2023-04-06T12:48:46;11.40;;;2.55;;
16824;SDS011;8529;48.108;-1.706;2023-04-06T12:51:21;8.77;;;2.75;;
16824;SDS011;8529;48.108;-1.706;2023-04-06T12:53:48;6.18;;;2.50;;
16824;SDS011;8529;48.108;-1.706;2023-04-06T12:56:18;3.78;;;2.13;;
16824;SDS011;8529;48.108;-1.706;2023-04-06T12:58:48;2.72;;;1.95;;
16824;SDS011;8529;48.108;-1.706;2023-04-06T13:01:21;2.28;;;1.40;;
16824;SDS011;8529;48.108;-1.706;2023-04-06T13:03:58;3.85;;;2.20;;
16824;SDS011;8529;48.108;-1.706;2023-04-06T13:06:29;5.85;;;2.50;;
16824;SDS011;8529;48.108;-1.706;2023-04-06T13:09:02;2.65;;;1.55;;
16824;SDS011;8529;48.108;-1.706;2023-04-06T13:11:30;2.55;;;1.42;;
16824;SDS011;8529;48.108;-1.706;2023-04-06T13:13:59;2.65;;;1.23;;
16824;SDS011;8529;48.108;-1.706;2023-04-06T13:16:26;2.15;;;1.25;;
16824;SDS011;8529;48.108;-1.706;2023-04-06T13:18:59;5.15;;;1.17;;
16824;SDS011;8529;48.108;-1.706;2023-04-06T13:21:32;2.60;;;1.20;;
16824;SDS011;8529;48.108;-1.706;2023-04-06T13:24:07;3.22;;;1.48;;
16824;SDS011;8529;48.108;-1.706;2023-04-06T13:26:38;3.45;;;1.42;;
16824;SDS011;8529;48.108;-1.706;2023-04-06T13:29:09;2.90;;;1.55;;
16824;SDS011;8529;48.108;-1.706;2023-04-06T13:31:38;2.20;;;1.65;;
16824;SDS011;8529;48.108;-1.706;2023-04-06T13:34:05;4.00;;;1.20;;
16824;SDS011;8529;48.108;-1.706;2023-04-06T13:36:35;6.38;;;0.95;;
16824;SDS011;8529;48.108;-1.706;2023-04-06T13:39:19;1.98;;;0.95;;
16824;SDS011;8529;48.108;-1.706;2023-04-06T13:41:52;2.50;;;0.82;;
16824;SDS011;8529;48.108;-1.706;2023-04-06T13:44:22;2.95;;;1.10;;
16824;SDS011;8529;48.108;-1.706;2023-04-06T13:46:53;2.22;;;0.95;;
16824;SDS011;8529;48.108;-1.706;2023-04-06T13:49:21;2.95;;;0.90;;
16824;SDS011;8529;48.108;-1.706;2023-04-06T13:51:53;1.80;;;0.80;;
16824;SDS011;8529;48.108;-1.706;2023-04-06T13:54:23;2.80;;;1.00;;
16824;SDS011;8529;48.108;-1.706;2023-04-06T13:56:53;1.45;;;0.68;;
16824;SDS011;8529;48.108;-1.706;2023-04-06T13:59:24;5.22;;;1.00;;
16824;SDS011;8529;48.108;-1.706;2023-04-06T14:01:50;5.15;;;1.23;;
16824;SDS011;8529;48.108;-1.706;2023-04-06T14:04:19;8.95;;;1.67;;
16824;SDS011;8529;48.108;-1.706;2023-04-06T14:06:49;1.95;;;0.82;;
16824;SDS011;8529;48.108;-1.706;2023-04-06T14:09:21;7.57;;;1.00;;
16824;SDS011;8529;48.108;-1.706;2023-04-06T14:11:50;6.45;;;1.30;;
16824;SDS011;8529;48.108;-1.706;2023-04-06T14:14:23;5.15;;;1.23;;
16824;SDS011;8529;48.108;-1.706;2023-04-06T14:16:51;5.07;;;1.70;;
16824;SDS011;8529;48.108;-1.706;2023-04-06T14:19:22;2.35;;;1.27;;
16824;SDS011;8529;48.108;-1.706;2023-04-06T14:21:52;3.63;;;1.20;;
16824;SDS011;8529;48.108;-1.706;2023-04-06T14:24:28;6.43;;;1.30;;
16824;SDS011;8529;48.108;-1.706;2023-04-06T14:26:57;3.45;;;1.35;;
16824;SDS011;8529;48.108;-1.706;2023-04-06T14:29:33;4.57;;;0.93;;
16824;SDS011;8529;48.108;-1.706;2023-04-06T14:32:02;6.00;;;1.25;;
16824;SDS011;8529;48.108;-1.706;2023-04-06T14:34:33;4.05;;;1.52;;
16824;SDS011;8529;48.108;-1.706;2023-04-06T14:37:07;1.83;;;0.80;;
16824;SDS011;8529;48.108;-1.706;2023-04-06T14:39:41;2.08;;;1.25;;
16824;SDS011;8529;48.108;-1.706;2023-04-06T14:42:08;3.08;;;1.17;;
16824;SDS011;8529;48.108;-1.706;2023-04-06T14:44:39;4.85;;;1.88;;
16824;SDS011;8529;48.108;-1.706;2023-04-06T14:47:10;2.90;;;1.25;;
16824;SDS011;8529;48.108;-1.706;2023-04-06T14:49:40;3.63;;;1.45;;
16824;SDS011;8529;48.108;-1.706;2023-04-06T14:52:07;2.92;;;1.30;;
16824;SDS011;8529;48.108;-1.706;2023-04-06T14:54:38;2.55;;;1.27;;
16824;SDS011;8529;48.108;-1.706;2023-04-06T14:57:07;2.45;;;1.13;;
16824;SDS011;8529;48.108;-1.706;2023-04-06T14:59:37;6.38;;;1.58;;